Tongelre, Netherlands
Current Conditions -  °F | °C
As of 1:13 PM on Thursday 30 Oct 2014 (Local Time) from EHEH Reporting Station
Haze Haze  
Wind Chill: 59°   Ceiling: 15000
Heat Index: 59°   Visibility: 3mi
Dew Point: 57°   Wind: 9mph
Humidity: 94%   Direction: 160°SSE
Pressure: 30.18"   Gusts: NA
Location:  51.45°N, 5.52°E
Report Text: EHEH 301213Z AUTO 16008KT 5000 BR FEW007 OVC150 15/14 Q1022 WHT 16004KT 6000 FEW007 BKN130 TEMPO SCT007
Loading
Personal Weather Stations






























Interactive Weather Map
Tropical Storm Tracking
New forecast layout! Learn more

10-Day Weather Forecast

Advertisements
Track Severe Weather on mobile